createdAt,value
2024-05-09T00:02:06.691Z,49.58
2024-05-09T00:04:32.985Z,49.87
2024-05-09T00:06:59.310Z,49.78
2024-05-09T00:09:25.675Z,49.82
2024-05-09T00:11:52.298Z,50.06
2024-05-09T00:14:18.780Z,50.19
2024-05-09T00:16:45.081Z,50.43
2024-05-09T00:19:11.477Z,50.43
2024-05-09T00:21:38.012Z,50.52
2024-05-09T00:24:04.278Z,50.47
2024-05-09T00:26:30.591Z,50.62
2024-05-09T00:28:57.098Z,50.68
2024-05-09T00:31:27.655Z,50.79
2024-05-09T00:33:54.129Z,50.74
2024-05-09T00:36:20.568Z,50.98
2024-05-09T00:38:46.932Z,50.90
2024-05-09T00:41:14.581Z,50.85
2024-05-09T00:43:42.153Z,50.88
2024-05-09T00:46:08.606Z,50.90
2024-05-09T00:48:35.012Z,51.13
2024-05-09T00:51:01.732Z,51.18
2024-05-09T00:53:28.209Z,51.25
2024-05-09T00:55:54.673Z,51.20
2024-05-09T00:58:21.005Z,50.96
2024-05-09T01:00:47.445Z,50.94
2024-05-09T01:03:14.520Z,50.98
2024-05-09T01:05:41.605Z,50.85
2024-05-09T01:08:08.401Z,50.83
2024-05-09T01:10:36.123Z,50.94
2024-05-09T01:13:03.018Z,51.05
2024-05-09T01:15:29.445Z,50.97
2024-05-09T01:17:56.310Z,50.96
2024-05-09T01:20:31.871Z,51.16
2024-05-09T01:23:06.329Z,51.26
2024-05-09T01:25:32.701Z,51.33
2024-05-09T01:27:58.963Z,51.22
2024-05-09T01:30:31.912Z,51.23
2024-05-09T01:33:01.961Z,51.15
2024-05-09T01:35:31.998Z,51.20
2024-05-09T01:37:58.452Z,51.22
2024-05-09T01:40:33.562Z,51.36
2024-05-09T01:43:04.092Z,51.30
2024-05-09T01:45:30.396Z,51.31
2024-05-09T01:47:56.955Z,51.40
2024-05-09T01:50:35.713Z,51.46
2024-05-09T01:53:05.334Z,51.50
2024-05-09T01:55:31.594Z,51.65
2024-05-09T01:57:57.842Z,51.54
2024-05-09T02:00:33.859Z,51.50
2024-05-09T02:03:05.750Z,51.75
2024-05-09T02:05:32.253Z,51.75
2024-05-09T02:07:58.663Z,51.82
2024-05-09T02:10:31.754Z,51.82
2024-05-09T02:12:59.264Z,51.88
2024-05-09T02:15:25.563Z,51.93
2024-05-09T02:17:52.067Z,52.04
2024-05-09T02:20:27.163Z,52.00
2024-05-09T02:22:59.762Z,52.15
2024-05-09T02:25:26.078Z,52.23
2024-05-09T02:27:52.411Z,52.39
2024-05-09T02:30:26.200Z,52.31
2024-05-09T02:33:02.260Z,52.53
2024-05-09T02:35:28.767Z,52.56
2024-05-09T02:37:55.087Z,52.53
2024-05-09T02:40:28.923Z,52.62
2024-05-09T02:43:02.261Z,52.60
2024-05-09T02:45:28.553Z,52.67
2024-05-09T02:47:55.110Z,52.60
2024-05-09T02:50:29.741Z,52.67
2024-05-09T02:53:03.172Z,52.64
2024-05-09T02:55:29.492Z,52.71
2024-05-09T02:57:55.834Z,52.60
2024-05-09T03:00:34.841Z,52.43
2024-05-09T03:03:06.473Z,52.46
2024-05-09T03:05:33.199Z,52.50
2024-05-09T03:07:59.792Z,52.49
2024-05-09T03:10:28.931Z,52.60
2024-05-09T03:12:59.236Z,52.63
2024-05-09T03:15:25.598Z,52.62
2024-05-09T03:17:52.099Z,52.63
2024-05-09T03:20:23.758Z,52.57
2024-05-09T03:22:56.880Z,52.69
2024-05-09T03:25:23.425Z,52.75
2024-05-09T03:27:49.869Z,52.61
2024-05-09T03:30:28.770Z,52.61
2024-05-09T03:33:02.105Z,52.76
2024-05-09T03:35:28.690Z,52.60
2024-05-09T03:37:54.982Z,52.64
2024-05-09T03:40:26.211Z,52.78
2024-05-09T03:42:53.056Z,52.82
2024-05-09T03:45:19.400Z,52.91
2024-05-09T03:47:46.382Z,53.07
2024-05-09T03:50:18.510Z,53.18
2024-05-09T03:52:52.668Z,53.11
2024-05-09T03:55:19.176Z,53.27
2024-05-09T03:57:45.509Z,53.33
2024-05-09T04:00:17.926Z,53.43
2024-05-09T04:02:52.112Z,53.14
2024-05-09T04:05:18.458Z,53.13
2024-05-09T04:07:44.890Z,53.20
2024-05-09T04:10:20.622Z,53.02
2024-05-09T04:12:50.663Z,52.90
2024-05-09T04:15:16.959Z,52.76
2024-05-09T04:17:43.569Z,52.80
2024-05-09T04:20:12.476Z,52.90
2024-05-09T04:22:44.659Z,52.54
2024-05-09T04:25:11.014Z,52.47
2024-05-09T04:27:37.245Z,52.21
2024-05-09T04:30:03.755Z,51.98
2024-05-09T04:32:31.710Z,51.70
2024-05-09T04:34:58.138Z,51.44
2024-05-09T04:37:24.611Z,51.43
2024-05-09T04:39:50.988Z,51.22
2024-05-09T04:42:17.382Z,50.96
2024-05-09T04:44:44.759Z,50.85
2024-05-09T04:47:11.279Z,50.85
2024-05-09T04:49:37.774Z,50.87
2024-05-09T04:52:04.050Z,50.97
2024-05-09T04:54:36.068Z,51.08
2024-05-09T04:57:03.117Z,50.90
2024-05-09T04:59:29.491Z,50.80
2024-05-09T05:01:55.815Z,50.68
2024-05-09T05:04:22.194Z,50.51
2024-05-09T05:06:48.583Z,50.21
2024-05-09T05:09:15.056Z,50.09
2024-05-09T05:11:41.382Z,49.89
2024-05-09T05:14:07.924Z,49.47
2024-05-09T05:16:34.172Z,49.12
2024-05-09T05:19:00.511Z,48.91
2024-05-09T05:21:27.155Z,49.11
2024-05-09T05:23:53.803Z,49.10
2024-05-09T05:26:20.129Z,49.36
2024-05-09T05:28:46.499Z,49.23
2024-05-09T05:31:12.760Z,49.01
2024-05-09T05:33:39.281Z,49.02
2024-05-09T05:36:05.961Z,48.25
2024-05-09T05:38:32.725Z,48.33
2024-05-09T05:40:59.248Z,48.12
2024-05-09T05:43:25.522Z,47.47
2024-05-09T05:45:51.835Z,47.20
2024-05-09T05:48:18.504Z,46.94
2024-05-09T05:50:45.146Z,45.98
2024-05-09T05:53:11.473Z,46.09
2024-05-09T05:55:37.819Z,45.76
2024-05-09T05:58:04.304Z,45.52
2024-05-09T06:00:37.803Z,45.33
2024-05-09T06:03:06.333Z,45.03
2024-05-09T06:05:33.500Z,44.80
2024-05-09T06:08:00.019Z,44.88
2024-05-09T06:10:35.025Z,44.79
2024-05-09T06:13:07.635Z,44.59
2024-05-09T06:15:34.284Z,44.49
2024-05-09T06:18:00.894Z,44.83
2024-05-09T06:20:35.058Z,44.53
2024-05-09T06:23:03.723Z,44.28
2024-05-09T06:25:30.017Z,43.98
2024-05-09T06:27:56.257Z,43.85
2024-05-09T06:30:30.033Z,43.38
2024-05-09T06:33:03.546Z,43.42
2024-05-09T06:35:30.224Z,43.03
2024-05-09T06:37:56.678Z,42.97
2024-05-09T06:40:29.202Z,42.80
2024-05-09T06:43:00.505Z,42.70
2024-05-09T06:45:26.966Z,42.24
2024-05-09T06:47:53.414Z,42.24
2024-05-09T06:50:24.025Z,41.83
2024-05-09T06:52:54.198Z,41.50
2024-05-09T06:55:20.537Z,41.21
2024-05-09T06:57:46.989Z,40.94
2024-05-09T07:00:19.150Z,41.15
2024-05-09T07:02:53.769Z,40.81
2024-05-09T07:05:20.278Z,40.77
2024-05-09T07:07:47.200Z,40.58
2024-05-09T07:10:21.536Z,40.77
2024-05-09T07:12:51.866Z,40.71
2024-05-09T07:15:18.183Z,40.69
2024-05-09T07:17:44.642Z,40.62
2024-05-09T07:20:16.198Z,39.72
2024-05-09T07:22:46.432Z,39.81
2024-05-09T07:25:12.892Z,39.64
2024-05-09T07:27:39.482Z,39.71
2024-05-09T07:30:07.247Z,39.49
2024-05-09T07:32:35.067Z,39.54
2024-05-09T07:35:01.729Z,39.89
2024-05-09T07:37:28.027Z,39.56
2024-05-09T07:39:54.324Z,39.79
2024-05-09T07:42:20.737Z,39.72
2024-05-09T07:44:46.982Z,39.16
2024-05-09T07:48:27.949Z,39.54
2024-05-09T07:51:47.492Z,38.62
2024-05-09T07:53:34.484Z,38.74
2024-05-09T07:55:32.376Z,38.52
2024-05-09T07:57:58.908Z,38.54
2024-05-09T08:00:31.050Z,38.17
2024-05-09T08:02:58.369Z,38.74
2024-05-09T08:05:24.915Z,37.71
2024-05-09T08:07:53.811Z,38.12
2024-05-09T08:10:24.500Z,36.98
2024-05-09T08:12:53.651Z,36.47
2024-05-09T08:15:20.054Z,35.98
2024-05-09T08:17:46.408Z,35.37
2024-05-09T08:20:15.922Z,35.41
2024-05-09T08:22:45.182Z,34.32
2024-05-09T08:25:13.544Z,33.54
2024-05-09T08:27:40.524Z,32.78
2024-05-09T08:30:10.105Z,33.27
2024-05-09T08:32:36.747Z,33.46
2024-05-09T08:35:03.614Z,33.54
2024-05-09T08:37:34.993Z,33.03
2024-05-09T08:40:05.271Z,32.41
2024-05-09T08:42:35.854Z,30.44
2024-05-09T08:45:02.257Z,31.28
2024-05-09T08:47:28.592Z,31.70
2024-05-09T08:49:55.006Z,31.40
2024-05-09T08:52:25.578Z,30.39
2024-05-09T08:54:51.863Z,29.64
2024-05-09T08:57:18.141Z,30.18
2024-05-09T08:59:44.422Z,30.40
2024-05-09T09:02:11.123Z,29.58
2024-05-09T09:04:37.817Z,29.61
2024-05-09T09:07:04.361Z,29.54
2024-05-09T09:09:30.786Z,29.69
2024-05-09T09:11:57.331Z,28.63
2024-05-09T09:14:23.749Z,28.84
2024-05-09T09:16:50.055Z,28.79
2024-05-09T09:19:16.476Z,27.53
2024-05-09T09:21:42.883Z,27.34
2024-05-09T09:24:10.032Z,27.38
2024-05-09T09:26:36.457Z,27.80
2024-05-09T09:29:02.802Z,27.83
2024-05-09T09:31:29.139Z,27.29
2024-05-09T09:33:55.910Z,27.38
2024-05-09T09:36:22.411Z,27.73
2024-05-09T09:38:50.675Z,27.89
2024-05-09T09:41:16.989Z,27.19
2024-05-09T09:43:43.303Z,26.69
2024-05-09T09:46:12.454Z,27.04
2024-05-09T09:48:39.257Z,26.74
2024-05-09T09:51:05.890Z,26.59
2024-05-09T09:53:32.162Z,26.67
2024-05-09T09:55:58.466Z,26.11
2024-05-09T09:58:25.051Z,25.81
2024-05-09T10:00:54.061Z,25.74
2024-05-09T10:03:20.585Z,25.36
2024-05-09T10:05:47.501Z,25.13
2024-05-09T10:08:14.102Z,25.22
2024-05-09T10:10:40.632Z,25.23
2024-05-09T10:13:07.313Z,24.95
2024-05-09T10:15:36.727Z,24.86
2024-05-09T10:18:03.190Z,24.73
2024-05-09T10:20:32.593Z,24.09
2024-05-09T10:22:59.327Z,24.59
2024-05-09T10:25:25.689Z,23.96
2024-05-09T10:27:52.054Z,23.98
2024-05-09T10:30:25.849Z,23.38
2024-05-09T10:32:56.347Z,23.62
2024-05-09T10:35:22.734Z,24.48
2024-05-09T10:37:49.167Z,24.53
2024-05-09T10:40:23.077Z,24.06
2024-05-09T10:42:55.106Z,23.93
2024-05-09T10:45:21.384Z,23.79
2024-05-09T10:47:47.804Z,23.75
2024-05-09T10:50:22.277Z,23.57
2024-05-09T10:52:54.583Z,23.94
2024-05-09T10:55:20.985Z,23.82
2024-05-09T10:57:47.493Z,23.74
2024-05-09T11:00:23.202Z,23.72
2024-05-09T11:02:56.474Z,23.66
2024-05-09T11:05:23.265Z,23.98
2024-05-09T11:07:49.805Z,23.44
2024-05-09T11:10:24.354Z,23.74
2024-05-09T11:12:53.843Z,23.39
2024-05-09T11:15:20.168Z,23.25
2024-05-09T11:17:46.519Z,23.35
2024-05-09T11:20:19.586Z,23.47
2024-05-09T11:22:52.679Z,23.46
2024-05-09T11:25:19.202Z,22.32
2024-05-09T11:27:45.640Z,22.31
2024-05-09T11:30:17.420Z,23.15
2024-05-09T11:32:50.123Z,23.42
2024-05-09T11:35:16.662Z,23.57
2024-05-09T11:37:42.914Z,23.27
2024-05-09T11:40:13.939Z,23.18
2024-05-09T11:42:49.921Z,23.02
2024-05-09T11:45:17.820Z,23.22
2024-05-09T11:47:44.320Z,23.04
2024-05-09T11:50:16.320Z,22.96
2024-05-09T11:52:48.971Z,22.90
2024-05-09T11:55:15.439Z,22.56
2024-05-09T11:57:41.886Z,22.64
2024-05-09T12:00:14.815Z,22.18
2024-05-09T12:02:44.104Z,22.12
2024-05-09T12:05:10.435Z,22.22
2024-05-09T12:07:36.825Z,21.60
2024-05-09T12:10:04.688Z,21.59
2024-05-09T12:12:35.512Z,22.07
2024-05-09T12:15:03.367Z,22.27
2024-05-09T12:17:29.860Z,21.52
2024-05-09T12:19:56.241Z,21.47
2024-05-09T12:22:25.630Z,21.61
2024-05-09T12:24:51.987Z,21.07
2024-05-09T12:27:18.373Z,20.35
2024-05-09T12:29:44.604Z,19.99
2024-05-09T12:32:11.144Z,19.76
2024-05-09T12:34:37.515Z,19.93
2024-05-09T12:37:03.857Z,20.06
2024-05-09T12:39:30.393Z,20.74
2024-05-09T12:41:57.969Z,21.16
2024-05-09T12:44:24.206Z,21.80
2024-05-09T12:46:51.747Z,21.91
2024-05-09T12:49:20.855Z,21.78
2024-05-09T12:51:47.245Z,21.15
2024-05-09T12:54:13.570Z,20.74
2024-05-09T12:56:39.823Z,20.61
2024-05-09T12:59:06.061Z,21.08
2024-05-09T13:01:33.521Z,20.69
2024-05-09T13:04:00.184Z,20.69
2024-05-09T13:06:26.822Z,20.43
2024-05-09T13:08:55.107Z,20.71
2024-05-09T13:11:21.490Z,20.64
2024-05-09T13:13:47.833Z,21.08
2024-05-09T13:16:14.317Z,21.16
2024-05-09T13:18:40.650Z,21.45
2024-05-09T13:21:07.070Z,21.38
2024-05-09T13:23:33.320Z,21.09
2024-05-09T13:25:59.586Z,21.31
2024-05-09T13:28:26.034Z,21.38
2024-05-09T13:30:52.423Z,21.13
2024-05-09T13:33:18.853Z,21.03
2024-05-09T13:35:49.178Z,21.02
2024-05-09T13:38:17.331Z,20.90
2024-05-09T13:40:43.632Z,20.89
2024-05-09T13:43:10.027Z,20.84
2024-05-09T13:45:36.348Z,20.62
2024-05-09T13:48:02.956Z,20.96
2024-05-09T13:50:34.215Z,20.77
2024-05-09T13:53:02.600Z,20.83
2024-05-09T13:55:29.034Z,20.81
2024-05-09T13:57:55.694Z,20.71
2024-05-09T14:02:54.709Z,21.15
2024-05-09T14:05:21.329Z,21.27
2024-05-09T14:07:47.737Z,20.98
2024-05-09T14:10:22.633Z,20.93
2024-05-09T14:12:53.026Z,21.29
2024-05-09T14:15:19.393Z,21.33
2024-05-09T14:17:45.705Z,21.17
2024-05-09T14:20:14.211Z,20.57
2024-05-09T14:22:45.618Z,20.77
2024-05-09T14:25:12.130Z,20.89
2024-05-09T14:27:38.783Z,21.04
2024-05-09T14:30:09.508Z,21.24
2024-05-09T14:32:41.480Z,21.15
2024-05-09T14:35:07.963Z,21.16
2024-05-09T14:37:36.339Z,21.12
2024-05-09T14:40:05.062Z,21.32
2024-05-09T14:42:33.283Z,21.74
2024-05-09T14:44:59.560Z,22.04
2024-05-09T14:47:28.725Z,22.58
2024-05-09T14:49:55.308Z,22.30
2024-05-09T14:52:21.724Z,22.80
2024-05-09T14:54:51.331Z,22.61
2024-05-09T14:57:20.219Z,22.80
2024-05-09T14:59:46.436Z,23.07
2024-05-09T15:02:13.050Z,23.31
2024-05-09T15:04:39.562Z,23.38
2024-05-09T15:07:06.691Z,22.87
2024-05-09T15:09:34.916Z,23.06
2024-05-09T15:12:01.488Z,23.01
2024-05-09T15:14:33.594Z,23.28
2024-05-09T15:16:59.873Z,23.51
2024-05-09T15:19:26.443Z,23.44
2024-05-09T15:21:52.938Z,23.87
2024-05-09T15:24:19.215Z,24.52
2024-05-09T15:26:45.491Z,24.59
2024-05-09T15:29:11.864Z,25.01
2024-05-09T15:31:38.092Z,25.26
2024-05-09T15:34:04.515Z,25.51
2024-05-09T15:36:31.270Z,25.37
2024-05-09T15:38:57.531Z,25.22
2024-05-09T15:41:23.826Z,25.35
2024-05-09T15:43:50.059Z,24.97
2024-05-09T15:46:16.304Z,25.08
2024-05-09T15:48:44.757Z,25.07
2024-05-09T15:51:11.376Z,24.79
2024-05-09T15:53:37.700Z,24.65
2024-05-09T15:56:03.955Z,24.11
2024-05-09T15:58:30.242Z,24.28
2024-05-09T16:00:56.625Z,23.87
2024-05-09T16:03:22.928Z,23.60
2024-05-09T16:05:49.267Z,23.98
2024-05-09T16:08:15.885Z,24.34
2024-05-09T16:10:44.199Z,24.58
2024-05-09T16:13:11.631Z,24.62
2024-05-09T16:15:38.058Z,24.71
2024-05-09T16:18:04.393Z,24.59
2024-05-09T16:20:38.799Z,25.11
2024-05-09T16:23:08.183Z,25.06
2024-05-09T16:25:35.044Z,25.23
2024-05-09T16:28:01.898Z,25.63
2024-05-09T16:30:34.372Z,25.40
2024-05-09T16:33:02.472Z,25.74
2024-05-09T16:35:31.361Z,25.63
2024-05-09T16:37:57.644Z,25.44
2024-05-09T16:40:30.488Z,25.29
2024-05-09T16:43:03.813Z,24.97
2024-05-09T16:45:30.470Z,24.58
2024-05-09T16:47:56.870Z,24.17
2024-05-09T16:50:29.279Z,24.21
2024-05-09T16:52:59.550Z,24.23
2024-05-09T16:55:25.899Z,24.59
2024-05-09T16:57:52.240Z,24.72
2024-05-09T17:00:26.724Z,24.45
2024-05-09T17:03:03.116Z,24.47
2024-05-09T17:05:29.800Z,24.48
2024-05-09T17:08:04.208Z,24.50
2024-05-09T17:10:33.704Z,24.52
2024-05-09T17:13:01.786Z,24.76
2024-05-09T17:15:28.303Z,25.03
2024-05-09T17:17:54.584Z,25.24
2024-05-09T17:20:29.398Z,25.02
2024-05-09T17:23:00.063Z,25.58
2024-05-09T17:25:26.340Z,25.77
2024-05-09T17:27:55.580Z,25.80
2024-05-09T17:30:29.039Z,26.34
2024-05-09T17:33:01.226Z,26.37
2024-05-09T17:35:27.658Z,26.86
2024-05-09T17:37:53.872Z,27.01
2024-05-09T17:40:30.041Z,27.63
2024-05-09T17:42:59.838Z,27.87
2024-05-09T17:45:26.363Z,28.05
2024-05-09T17:47:52.860Z,28.16
2024-05-09T17:50:27.270Z,28.46
2024-05-09T17:53:00.226Z,28.55
2024-05-09T17:55:26.798Z,28.77
2024-05-09T17:57:53.348Z,28.96
2024-05-09T18:00:28.828Z,29.20
2024-05-09T18:03:03.101Z,29.43
2024-05-09T18:05:29.637Z,29.57
2024-05-09T18:07:56.141Z,29.66
2024-05-09T18:10:29.511Z,29.77
2024-05-09T18:13:02.329Z,29.92
2024-05-09T18:15:28.640Z,30.28
2024-05-09T18:17:55.050Z,30.43
2024-05-09T18:20:32.141Z,30.78
2024-05-09T18:23:06.396Z,30.84
2024-05-09T18:25:32.888Z,31.38
2024-05-09T18:27:59.274Z,31.50
2024-05-09T18:30:32.229Z,31.94
2024-05-09T18:33:02.123Z,32.10
2024-05-09T18:35:30.595Z,32.25
2024-05-09T18:37:56.987Z,32.42
2024-05-09T18:42:52.568Z,32.88
2024-05-09T18:45:18.929Z,32.99
2024-05-09T18:47:45.296Z,33.51
2024-05-09T18:50:17.295Z,33.90
2024-05-09T18:52:50.754Z,34.39
2024-05-09T18:55:17.202Z,34.41
2024-05-09T18:57:43.523Z,34.18
2024-05-09T19:00:22.700Z,34.32
2024-05-09T19:02:57.384Z,34.17
2024-05-09T19:05:23.992Z,34.09
2024-05-09T19:07:50.511Z,34.69
2024-05-09T19:12:59.899Z,35.08
2024-05-09T19:15:30.827Z,35.08
2024-05-09T19:18:00.077Z,35.25
2024-05-09T19:20:34.128Z,35.43
2024-05-09T19:23:02.202Z,35.46
2024-05-09T19:25:28.650Z,35.81
2024-05-09T19:27:55.964Z,35.44
2024-05-09T19:30:30.117Z,35.44
2024-05-09T19:33:04.679Z,35.67
2024-05-09T19:35:31.325Z,35.66
2024-05-09T19:37:57.553Z,35.59
2024-05-09T19:40:30.415Z,35.63
2024-05-09T19:43:00.420Z,35.90
2024-05-09T19:45:27.955Z,36.17
2024-05-09T19:47:54.686Z,36.24
2024-05-09T19:50:27.131Z,36.48
2024-05-09T19:53:02.578Z,36.59
2024-05-09T19:55:29.043Z,36.49
2024-05-09T19:57:58.924Z,36.89
2024-05-09T20:00:32.860Z,36.85
2024-05-09T20:03:03.234Z,37.15
2024-05-09T20:05:32.095Z,37.03
2024-05-09T20:07:58.713Z,37.04
2024-05-09T20:10:31.075Z,37.06
2024-05-09T20:13:00.879Z,37.43
2024-05-09T20:15:30.287Z,37.50
2024-05-09T20:17:56.951Z,37.65
2024-05-09T20:20:34.984Z,37.92
2024-05-09T20:23:04.823Z,37.90
2024-05-09T20:25:33.240Z,38.22
2024-05-09T20:28:00.060Z,38.16
2024-05-09T20:30:31.946Z,38.06
2024-05-09T20:33:00.288Z,38.27
2024-05-09T20:35:27.118Z,38.44
2024-05-09T20:37:53.614Z,38.41
2024-05-09T20:40:28.265Z,38.60
2024-05-09T20:42:59.640Z,38.68
2024-05-09T20:45:26.054Z,38.84
2024-05-09T20:47:52.533Z,38.94
2024-05-09T20:50:28.022Z,39.06
2024-05-09T20:53:02.634Z,39.50
2024-05-09T20:55:29.174Z,39.36
2024-05-09T20:57:55.834Z,39.52
2024-05-09T21:00:29.757Z,39.43
2024-05-09T21:03:02.123Z,39.44
2024-05-09T21:05:30.267Z,39.47
2024-05-09T21:07:56.991Z,39.55
2024-05-09T21:10:27.185Z,39.66
2024-05-09T21:12:56.399Z,39.69
2024-05-09T21:15:22.798Z,39.75
2024-05-09T21:17:49.183Z,39.77
2024-05-09T21:20:20.321Z,39.97
2024-05-09T21:22:51.915Z,40.06
2024-05-09T21:25:18.246Z,40.09
2024-05-09T21:27:48.749Z,40.20
2024-05-09T21:30:31.624Z,40.23
2024-05-09T21:33:06.592Z,40.40
2024-05-09T21:35:32.981Z,40.39
2024-05-09T21:37:59.360Z,40.41
2024-05-09T21:40:35.002Z,40.93
2024-05-09T21:43:02.892Z,41.12
2024-05-09T21:45:29.519Z,41.28
2024-05-09T21:47:56.216Z,41.35
2024-05-09T21:50:28.418Z,41.39
2024-05-09T21:53:02.309Z,41.31
2024-05-09T21:55:28.551Z,41.21
2024-05-09T21:57:55.098Z,42.43
2024-05-09T22:00:29.018Z,43.34
2024-05-09T22:03:01.648Z,43.62
2024-05-09T22:05:28.083Z,43.95
2024-05-09T22:07:54.386Z,44.08
2024-05-09T22:10:26.252Z,44.93
2024-05-09T22:13:00.605Z,45.49
2024-05-09T22:15:26.997Z,45.81
2024-05-09T22:17:55.057Z,46.13
2024-05-09T22:20:28.858Z,45.98
2024-05-09T22:23:02.342Z,46.30
2024-05-09T22:25:30.441Z,46.54
2024-05-09T22:27:58.776Z,46.92
2024-05-09T22:30:33.832Z,47.23
2024-05-09T22:33:04.068Z,47.32
2024-05-09T22:35:30.506Z,47.85
2024-05-09T22:37:56.818Z,48.01
2024-05-09T22:40:32.195Z,48.31
2024-05-09T22:43:05.206Z,48.78
2024-05-09T22:45:31.713Z,49.15
2024-05-09T22:48:01.207Z,49.37
2024-05-09T22:50:32.823Z,49.61
2024-05-09T22:52:59.962Z,49.93
2024-05-09T22:55:26.229Z,50.12
2024-05-09T22:57:52.841Z,50.42
2024-05-09T23:00:26.190Z,50.65
2024-05-09T23:02:58.122Z,51.08
2024-05-09T23:05:24.513Z,51.30
2024-05-09T23:07:55.101Z,51.40
2024-05-09T23:10:28.313Z,51.42
2024-05-09T23:13:04.247Z,51.73
2024-05-09T23:15:30.859Z,51.98
2024-05-09T23:17:57.635Z,52.13
2024-05-09T23:20:33.430Z,52.49
2024-05-09T23:23:04.252Z,52.89
2024-05-09T23:25:30.590Z,53.09
2024-05-09T23:27:57.068Z,53.32
2024-05-09T23:30:33.169Z,53.39
2024-05-09T23:33:04.214Z,53.24
2024-05-09T23:35:30.624Z,53.40
2024-05-09T23:37:56.918Z,53.31
2024-05-09T23:40:36.757Z,53.41
2024-05-09T23:43:06.327Z,53.32
2024-05-09T23:45:32.840Z,53.52
2024-05-09T23:47:59.398Z,53.43
2024-05-09T23:50:33.614Z,53.48
2024-05-09T23:53:02.983Z,53.58
2024-05-09T23:55:29.252Z,53.73
2024-05-09T23:57:55.646Z,53.77
